sensor_id;sensor_type;location;lat;lon;timestamp;pressure;altitude;pressure_sealevel;temperature;humidity
73981;BME280;62348;51.412;5.436;2023-12-20T00:01:31;101496.44;;;5.89;100.00
73981;BME280;62348;51.412;5.436;2023-12-20T00:03:56;101495.84;;;5.87;100.00
73981;BME280;62348;51.412;5.436;2023-12-20T00:06:22;101502.47;;;5.84;100.00
73981;BME280;62348;51.412;5.436;2023-12-20T00:08:47;101498.53;;;5.80;100.00
73981;BME280;62348;51.412;5.436;2023-12-20T00:11:13;101493.00;;;5.75;100.00
73981;BME280;62348;51.412;5.436;2023-12-20T00:13:38;101500.22;;;5.75;100.00
73981;BME280;62348;51.412;5.436;2023-12-20T00:16:04;101502.72;;;5.70;100.00
73981;BME280;62348;51.412;5.436;2023-12-20T00:18:29;101508.72;;;5.65;100.00
73981;BME280;62348;51.412;5.436;2023-12-20T00:20:54;101508.31;;;5.61;100.00
73981;BME280;62348;51.412;5.436;2023-12-20T00:23:20;101502.31;;;5.59;100.00
73981;BME280;62348;51.412;5.436;2023-12-20T00:25:45;101503.59;;;5.57;100.00
73981;BME280;62348;51.412;5.436;2023-12-20T00:28:11;101505.66;;;5.55;100.00
73981;BME280;62348;51.412;5.436;2023-12-20T00:30:36;101502.16;;;5.54;100.00
73981;BME280;62348;51.412;5.436;2023-12-20T00:33:01;101499.88;;;5.51;100.00
73981;BME280;62348;51.412;5.436;2023-12-20T00:35:27;101501.75;;;5.51;100.00
73981;BME280;62348;51.412;5.436;2023-12-20T00:37:53;101503.22;;;5.46;100.00
73981;BME280;62348;51.412;5.436;2023-12-20T00:40:18;101500.75;;;5.45;100.00
73981;BME280;62348;51.412;5.436;2023-12-20T00:42:44;101510.00;;;5.42;100.00
73981;BME280;62348;51.412;5.436;2023-12-20T00:45:09;101503.22;;;5.40;100.00
73981;BME280;62348;51.412;5.436;2023-12-20T00:47:35;101493.75;;;5.37;100.00
73981;BME280;62348;51.412;5.436;2023-12-20T00:50:00;101487.97;;;5.34;100.00
73981;BME280;62348;51.412;5.436;2023-12-20T00:52:25;101476.03;;;5.30;100.00
73981;BME280;62348;51.412;5.436;2023-12-20T00:54:51;101487.56;;;5.30;100.00
73981;BME280;62348;51.412;5.436;2023-12-20T00:57:17;101493.34;;;5.27;100.00
73981;BME280;62348;51.412;5.436;2023-12-20T00:59:42;101485.72;;;5.24;100.00
73981;BME280;62348;51.412;5.436;2023-12-20T01:02:08;101485.94;;;5.22;100.00
73981;BME280;62348;51.412;5.436;2023-12-20T01:04:34;101489.03;;;5.19;100.00
73981;BME280;62348;51.412;5.436;2023-12-20T01:06:59;101482.44;;;5.15;100.00
73981;BME280;62348;51.412;5.436;2023-12-20T01:09:25;101483.47;;;5.14;100.00
73981;BME280;62348;51.412;5.436;2023-12-20T01:11:52;101487.38;;;5.12;100.00
73981;BME280;62348;51.412;5.436;2023-12-20T01:14:18;101486.78;;;5.09;100.00
73981;BME280;62348;51.412;5.436;2023-12-20T01:16:43;101491.53;;;5.07;100.00
73981;BME280;62348;51.412;5.436;2023-12-20T01:19:09;101495.22;;;5.06;100.00
73981;BME280;62348;51.412;5.436;2023-12-20T01:21:34;101502.03;;;5.02;100.00
73981;BME280;62348;51.412;5.436;2023-12-20T01:23:59;101501.03;;;5.03;100.00
73981;BME280;62348;51.412;5.436;2023-12-20T01:26:25;101510.91;;;5.03;100.00
73981;BME280;62348;51.412;5.436;2023-12-20T01:28:50;101506.56;;;5.02;100.00
73981;BME280;62348;51.412;5.436;2023-12-20T01:31:16;101505.56;;;5.03;100.00
73981;BME280;62348;51.412;5.436;2023-12-20T01:33:41;101503.69;;;5.03;100.00
73981;BME280;62348;51.412;5.436;2023-12-20T01:36:06;101505.56;;;5.03;100.00
73981;BME280;62348;51.412;5.436;2023-12-20T01:38:32;101507.19;;;5.04;100.00
73981;BME280;62348;51.412;5.436;2023-12-20T01:40:57;101507.41;;;5.02;100.00
73981;BME280;62348;51.412;5.436;2023-12-20T01:43:23;101507.41;;;5.02;100.00
73981;BME280;62348;51.412;5.436;2023-12-20T01:45:48;101509.25;;;5.02;100.00
73981;BME280;62348;51.412;5.436;2023-12-20T01:48:14;101509.66;;;4.99;100.00
73981;BME280;62348;51.412;5.436;2023-12-20T01:50:41;101505.16;;;4.99;100.00
73981;BME280;62348;51.412;5.436;2023-12-20T01:53:09;101498.94;;;4.99;100.00
73981;BME280;62348;51.412;5.436;2023-12-20T01:55:39;101505.16;;;4.99;100.00
73981;BME280;62348;51.412;5.436;2023-12-20T01:58:05;101504.94;;;5.01;100.00
73981;BME280;62348;51.412;5.436;2023-12-20T02:00:31;101500.19;;;5.03;100.00
73981;BME280;62348;51.412;5.436;2023-12-20T02:03:00;101496.66;;;5.02;100.00
73981;BME280;62348;51.412;5.436;2023-12-20T02:05:26;101500.19;;;5.03;100.00
73981;BME280;62348;51.412;5.436;2023-12-20T02:07:53;101491.13;;;5.04;100.00
73981;BME280;62348;51.412;5.436;2023-12-20T02:10:18;101492.16;;;5.03;100.00
73981;BME280;62348;51.412;5.436;2023-12-20T02:12:44;101495.66;;;5.03;100.00
73981;BME280;62348;51.412;5.436;2023-12-20T02:15:09;101498.53;;;5.02;100.00
73981;BME280;62348;51.412;5.436;2023-12-20T02:17:36;101498.75;;;5.00;100.00
73981;BME280;62348;51.412;5.436;2023-12-20T02:20:02;101505.75;;;5.01;100.00
73981;BME280;62348;51.412;5.436;2023-12-20T02:22:27;101501.63;;;4.99;100.00
73981;BME280;62348;51.412;5.436;2023-12-20T02:24:53;101499.19;;;4.97;100.00
73981;BME280;62348;51.412;5.436;2023-12-20T02:27:19;101501.84;;;4.97;100.00
73981;BME280;62348;51.412;5.436;2023-12-20T02:29:47;101492.75;;;4.98;100.00
73981;BME280;62348;51.412;5.436;2023-12-20T02:32:12;101492.16;;;4.96;100.00
73981;BME280;62348;51.412;5.436;2023-12-20T02:34:38;101486.78;;;4.96;100.00
73981;BME280;62348;51.412;5.436;2023-12-20T02:37:03;101485.97;;;4.96;100.00
73981;BME280;62348;51.412;5.436;2023-12-20T02:39:28;101491.53;;;4.94;100.00
73981;BME280;62348;51.412;5.436;2023-12-20T02:41:54;101501.25;;;4.95;100.00
73981;BME280;62348;51.412;5.436;2023-12-20T02:44:19;101502.25;;;4.94;100.00
73981;BME280;62348;51.412;5.436;2023-12-20T02:46:45;101494.63;;;4.91;100.00
73981;BME280;62348;51.412;5.436;2023-12-20T02:49:10;101498.34;;;4.90;100.00
73981;BME280;62348;51.412;5.436;2023-12-20T02:51:35;101496.69;;;4.89;100.00
73981;BME280;62348;51.412;5.436;2023-12-20T02:54:04;101502.03;;;4.89;100.00
73981;BME280;62348;51.412;5.436;2023-12-20T02:56:29;101507.41;;;4.89;100.00
73981;BME280;62348;51.412;5.436;2023-12-20T02:58:54;101511.13;;;4.88;100.00
73981;BME280;62348;51.412;5.436;2023-12-20T03:01:20;101508.66;;;4.86;100.00
73981;BME280;62348;51.412;5.436;2023-12-20T03:03:45;101509.66;;;4.85;100.00
73981;BME280;62348;51.412;5.436;2023-12-20T03:06:10;101499.78;;;4.86;100.00
73981;BME280;62348;51.412;5.436;2023-12-20T03:08:36;101502.47;;;4.86;100.00
73981;BME280;62348;51.412;5.436;2023-12-20T03:11:02;101498.34;;;4.83;100.00
73981;BME280;62348;51.412;5.436;2023-12-20T03:13:27;101493.81;;;4.84;100.00
73981;BME280;62348;51.412;5.436;2023-12-20T03:15:52;101492.16;;;4.83;100.00
73981;BME280;62348;51.412;5.436;2023-12-20T03:18:18;101485.78;;;4.84;100.00
73981;BME280;62348;51.412;5.436;2023-12-20T03:20:43;101488.06;;;4.80;100.00
73981;BME280;62348;51.412;5.436;2023-12-20T03:23:09;101489.69;;;4.81;100.00
73981;BME280;62348;51.412;5.436;2023-12-20T03:25:34;101480.81;;;4.81;100.00
73981;BME280;62348;51.412;5.436;2023-12-20T03:28:00;101481.03;;;4.79;100.00
73981;BME280;62348;51.412;5.436;2023-12-20T03:30:25;101486.38;;;4.79;100.00
73981;BME280;62348;51.412;5.436;2023-12-20T03:32:51;101477.72;;;4.77;100.00
73981;BME280;62348;51.412;5.436;2023-12-20T03:35:16;101475.25;;;4.76;100.00
73981;BME280;62348;51.412;5.436;2023-12-20T03:37:42;101488.66;;;4.76;100.00
73981;BME280;62348;51.412;5.436;2023-12-20T03:40:07;101487.44;;;4.78;100.00
73981;BME280;62348;51.412;5.436;2023-12-20T03:42:32;101487.44;;;4.78;100.00
73981;BME280;62348;51.412;5.436;2023-12-20T03:44:58;101480.00;;;4.80;100.00
73981;BME280;62348;51.412;5.436;2023-12-20T03:47:23;101473.59;;;4.81;100.00
73981;BME280;62348;51.412;5.436;2023-12-20T03:49:49;101482.50;;;4.82;100.00
73981;BME280;62348;51.412;5.436;2023-12-20T03:52:14;101471.53;;;4.83;100.00
73981;BME280;62348;51.412;5.436;2023-12-20T03:54:40;101469.47;;;4.85;100.00
73981;BME280;62348;51.412;5.436;2023-12-20T03:57:07;101474.84;;;4.85;100.00
73981;BME280;62348;51.412;5.436;2023-12-20T03:59:36;101471.13;;;4.86;100.00
73981;BME280;62348;51.412;5.436;2023-12-20T04:02:02;101463.09;;;4.86;100.00
73981;BME280;62348;51.412;5.436;2023-12-20T04:04:28;101466.59;;;4.87;100.00
73981;BME280;62348;51.412;5.436;2023-12-20T04:06:53;101475.25;;;4.89;100.00
73981;BME280;62348;51.412;5.436;2023-12-20T04:09:19;101471.53;;;4.90;100.00
73981;BME280;62348;51.412;5.436;2023-12-20T04:11:44;101482.28;;;4.90;100.00
73981;BME280;62348;51.412;5.436;2023-12-20T04:14:09;101469.69;;;4.91;100.00
73981;BME280;62348;51.412;5.436;2023-12-20T04:16:35;101472.38;;;4.91;100.00
73981;BME280;62348;51.412;5.436;2023-12-20T04:19:01;101469.28;;;4.94;100.00
73981;BME280;62348;51.412;5.436;2023-12-20T04:21:26;101482.69;;;4.94;100.00
73981;BME280;62348;51.412;5.436;2023-12-20T04:23:51;101476.28;;;4.95;100.00
73981;BME280;62348;51.412;5.436;2023-12-20T04:26:17;101475.25;;;4.96;100.00
73981;BME280;62348;51.412;5.436;2023-12-20T04:28:42;101481.44;;;4.96;100.00
73981;BME280;62348;51.412;5.436;2023-12-20T04:31:08;101481.22;;;4.98;100.00
73981;BME280;62348;51.412;5.436;2023-12-20T04:33:33;101474.63;;;5.00;100.00
73981;BME280;62348;51.412;5.436;2023-12-20T04:35:59;101482.47;;;5.02;100.00
73981;BME280;62348;51.412;5.436;2023-12-20T04:38:25;101487.81;;;5.02;100.00
73981;BME280;62348;51.412;5.436;2023-12-20T04:40:51;101491.13;;;5.04;100.00
73981;BME280;62348;51.412;5.436;2023-12-20T04:43:16;101481.22;;;5.04;100.00
73981;BME280;62348;51.412;5.436;2023-12-20T04:45:42;101480.38;;;5.04;100.00
73981;BME280;62348;51.412;5.436;2023-12-20T04:48:07;101477.50;;;5.05;100.00
73981;BME280;62348;51.412;5.436;2023-12-20T04:50:33;101478.13;;;5.07;100.00
73981;BME280;62348;51.412;5.436;2023-12-20T04:52:58;101486.97;;;5.08;100.00
73981;BME280;62348;51.412;5.436;2023-12-20T04:55:24;101490.28;;;5.10;100.00
73981;BME280;62348;51.412;5.436;2023-12-20T04:57:49;101483.28;;;5.09;100.00
73981;BME280;62348;51.412;5.436;2023-12-20T05:00:14;101481.41;;;5.09;100.00
73981;BME280;62348;51.412;5.436;2023-12-20T05:02:40;101474.19;;;5.10;100.00
73981;BME280;62348;51.412;5.436;2023-12-20T05:05:06;101481.22;;;5.11;100.00
73981;BME280;62348;51.412;5.436;2023-12-20T05:07:31;101487.38;;;5.12;100.00
73981;BME280;62348;51.412;5.436;2023-12-20T05:09:57;101471.31;;;5.12;100.00
73981;BME280;62348;51.412;5.436;2023-12-20T05:12:23;101471.91;;;5.14;100.00
73981;BME280;62348;51.412;5.436;2023-12-20T05:14:48;101470.09;;;5.14;100.00
73981;BME280;62348;51.412;5.436;2023-12-20T05:17:14;101457.50;;;5.15;100.00
73981;BME280;62348;51.412;5.436;2023-12-20T05:19:39;101460.78;;;5.17;100.00
73981;BME280;62348;51.412;5.436;2023-12-20T05:22:04;101457.06;;;5.18;100.00
73981;BME280;62348;51.412;5.436;2023-12-20T05:24:30;101464.28;;;5.17;100.00
73981;BME280;62348;51.412;5.436;2023-12-20T05:26:55;101455.63;;;5.22;100.00
73981;BME280;62348;51.412;5.436;2023-12-20T05:29:21;101460.16;;;5.21;100.00
73981;BME280;62348;51.412;5.436;2023-12-20T05:31:46;101467.16;;;5.22;100.00
73981;BME280;62348;51.412;5.436;2023-12-20T05:34:11;101471.47;;;5.23;100.00
73981;BME280;62348;51.412;5.436;2023-12-20T05:36:37;101457.06;;;5.24;100.00
73981;BME280;62348;51.412;5.436;2023-12-20T05:39:04;101462.22;;;5.26;100.00
73981;BME280;62348;51.412;5.436;2023-12-20T05:41:31;101463.03;;;5.26;100.00
73981;BME280;62348;51.412;5.436;2023-12-20T05:43:56;101461.16;;;5.27;100.00
73981;BME280;62348;51.412;5.436;2023-12-20T05:46:23;101468.19;;;5.28;100.00
73981;BME280;62348;51.412;5.436;2023-12-20T05:48:49;101466.31;;;5.28;100.00
73981;BME280;62348;51.412;5.436;2023-12-20T05:51:15;101467.13;;;5.29;100.00
73981;BME280;62348;51.412;5.436;2023-12-20T05:53:40;101479.53;;;5.30;100.00
73981;BME280;62348;51.412;5.436;2023-12-20T05:56:06;101469.81;;;5.29;100.00
73981;BME280;62348;51.412;5.436;2023-12-20T05:58:32;101474.97;;;5.31;100.00
73981;BME280;62348;51.412;5.436;2023-12-20T06:00:58;101476.03;;;5.30;100.00
73981;BME280;62348;51.412;5.436;2023-12-20T06:03:24;101474.38;;;5.28;100.00
73981;BME280;62348;51.412;5.436;2023-12-20T06:05:49;101487.16;;;5.26;100.00
73981;BME280;62348;51.412;5.436;2023-12-20T06:08:15;101485.53;;;5.25;100.00
73981;BME280;62348;51.412;5.436;2023-12-20T06:10:40;101484.06;;;5.23;100.00
73981;BME280;62348;51.412;5.436;2023-12-20T06:13:05;101487.81;;;5.22;100.00
73981;BME280;62348;51.412;5.436;2023-12-20T06:15:32;101485.53;;;5.19;100.00
73981;BME280;62348;51.412;5.436;2023-12-20T06:17:58;101484.09;;;5.16;100.00
73981;BME280;62348;51.412;5.436;2023-12-20T06:20:23;101480.81;;;5.14;100.00
73981;BME280;62348;51.412;5.436;2023-12-20T06:22:49;101476.66;;;5.12;100.00
73981;BME280;62348;51.412;5.436;2023-12-20T06:25:15;101485.97;;;5.09;100.00
73981;BME280;62348;51.412;5.436;2023-12-20T06:27:40;101485.56;;;5.05;100.00
73981;BME280;62348;51.412;5.436;2023-12-20T06:30:07;101485.13;;;5.02;100.00
73981;BME280;62348;51.412;5.436;2023-12-20T06:32:32;101488.22;;;4.99;100.00
73981;BME280;62348;51.412;5.436;2023-12-20T06:34:59;101481.22;;;4.98;100.00
73981;BME280;62348;51.412;5.436;2023-12-20T06:37:24;101479.81;;;4.95;100.00
73981;BME280;62348;51.412;5.436;2023-12-20T06:39:50;101481.03;;;4.93;100.00
73981;BME280;62348;51.412;5.436;2023-12-20T06:42:15;101487.44;;;4.92;100.00
73981;BME280;62348;51.412;5.436;2023-12-20T06:44:41;101487.44;;;4.92;100.00
73981;BME280;62348;51.412;5.436;2023-12-20T06:47:07;101485.75;;;4.91;100.00
73981;BME280;62348;51.412;5.436;2023-12-20T06:49:32;101483.47;;;4.87;100.00
73981;BME280;62348;51.412;5.436;2023-12-20T06:51:57;101481.03;;;4.86;100.00
73981;BME280;62348;51.412;5.436;2023-12-20T06:54:23;101481.84;;;4.86;100.00
73981;BME280;62348;51.412;5.436;2023-12-20T06:56:48;101484.72;;;4.85;100.00
73981;BME280;62348;51.412;5.436;2023-12-20T06:59:14;101483.72;;;4.86;100.00
73981;BME280;62348;51.412;5.436;2023-12-20T07:01:39;101480.19;;;4.85;100.00
73981;BME280;62348;51.412;5.436;2023-12-20T07:04:04;101472.16;;;4.85;100.00
73981;BME280;62348;51.412;5.436;2023-12-20T07:06:30;101483.91;;;4.84;100.00
73981;BME280;62348;51.412;5.436;2023-12-20T07:08:55;101466.19;;;4.83;100.00
73981;BME280;62348;51.412;5.436;2023-12-20T07:11:20;101473.41;;;4.83;100.00
73981;BME280;62348;51.412;5.436;2023-12-20T07:13:46;101472.38;;;4.84;100.00
73981;BME280;62348;51.412;5.436;2023-12-20T07:16:11;101480.63;;;4.82;100.00
73981;BME280;62348;51.412;5.436;2023-12-20T07:18:38;101469.91;;;4.82;100.00
73981;BME280;62348;51.412;5.436;2023-12-20T07:21:04;101463.09;;;4.80;100.00
73981;BME280;62348;51.412;5.436;2023-12-20T07:23:29;101456.09;;;4.79;100.00
73981;BME280;62348;51.412;5.436;2023-12-20T07:25:55;101461.47;;;4.79;100.00
73981;BME280;62348;51.412;5.436;2023-12-20T07:28:20;101454.22;;;4.79;100.00
73981;BME280;62348;51.412;5.436;2023-12-20T07:30:45;101465.16;;;4.78;100.00
73981;BME280;62348;51.412;5.436;2023-12-20T07:33:11;101468.69;;;4.78;100.00
73981;BME280;62348;51.412;5.436;2023-12-20T07:35:37;101477.72;;;4.77;100.00
73981;BME280;62348;51.412;5.436;2023-12-20T07:38:03;101489.88;;;4.80;100.00
73981;BME280;62348;51.412;5.436;2023-12-20T07:40:28;101475.66;;;4.79;100.00
73981;BME280;62348;51.412;5.436;2023-12-20T07:42:54;101471.97;;;4.80;100.00
73981;BME280;62348;51.412;5.436;2023-12-20T07:45:19;101480.44;;;4.84;100.00
73981;BME280;62348;51.412;5.436;2023-12-20T07:47:45;101482.06;;;4.85;100.00
73981;BME280;62348;51.412;5.436;2023-12-20T07:50:10;101480.00;;;4.87;100.00
73981;BME280;62348;51.412;5.436;2023-12-20T07:52:35;101482.47;;;4.88;100.00
73981;BME280;62348;51.412;5.436;2023-12-20T07:55:01;101483.28;;;4.89;100.00
73981;BME280;62348;51.412;5.436;2023-12-20T07:57:29;101480.41;;;4.91;100.00
73981;BME280;62348;51.412;5.436;2023-12-20T07:59:55;101481.84;;;4.93;100.00
73981;BME280;62348;51.412;5.436;2023-12-20T08:02:20;101483.50;;;4.94;100.00
73981;BME280;62348;51.412;5.436;2023-12-20T08:04:46;101484.31;;;4.95;100.00
73981;BME280;62348;51.412;5.436;2023-12-20T08:07:11;101482.47;;;4.95;100.00
73981;BME280;62348;51.412;5.436;2023-12-20T08:09:36;101487.41;;;4.98;100.00
73981;BME280;62348;51.412;5.436;2023-12-20T08:12:02;101489.28;;;4.98;100.00
73981;BME280;62348;51.412;5.436;2023-12-20T08:14:28;101491.75;;;4.99;100.00
73981;BME280;62348;51.412;5.436;2023-12-20T08:16:53;101491.53;;;5.01;100.00
73981;BME280;62348;51.412;5.436;2023-12-20T08:19:19;101493.19;;;5.02;100.00
73981;BME280;62348;51.412;5.436;2023-12-20T08:21:44;101489.47;;;5.03;100.00
73981;BME280;62348;51.412;5.436;2023-12-20T08:24:09;101492.78;;;5.05;100.00
73981;BME280;62348;51.412;5.436;2023-12-20T08:26:35;101496.06;;;5.07;100.00
73981;BME280;62348;51.412;5.436;2023-12-20T08:29:00;101504.09;;;5.07;100.00
73981;BME280;62348;51.412;5.436;2023-12-20T08:31:25;101503.06;;;5.08;100.00
73981;BME280;62348;51.412;5.436;2023-12-20T08:33:51;101506.59;;;5.08;100.00
73981;BME280;62348;51.412;5.436;2023-12-20T08:36:19;101499.38;;;5.09;100.00
73981;BME280;62348;51.412;5.436;2023-12-20T08:38:46;101511.09;;;5.08;100.00
73981;BME280;62348;51.412;5.436;2023-12-20T08:41:12;101503.06;;;5.08;100.00
73981;BME280;62348;51.412;5.436;2023-12-20T08:43:37;101507.81;;;5.13;100.00
73981;BME280;62348;51.412;5.436;2023-12-20T08:46:05;101504.94;;;5.14;100.00
73981;BME280;62348;51.412;5.436;2023-12-20T08:48:31;101495.03;;;5.15;100.00
73981;BME280;62348;51.412;5.436;2023-12-20T08:50:56;101485.31;;;5.14;100.00
73981;BME280;62348;51.412;5.436;2023-12-20T08:53:22;101486.56;;;5.11;100.00
73981;BME280;62348;51.412;5.436;2023-12-20T08:55:47;101475.25;;;5.09;100.00
73981;BME280;62348;51.412;5.436;2023-12-20T08:58:13;101469.88;;;5.09;100.00
73981;BME280;62348;51.412;5.436;2023-12-20T09:00:39;101473.78;;;5.13;100.00
73981;BME280;62348;51.412;5.436;2023-12-20T09:03:05;101472.53;;;5.16;100.00
73981;BME280;62348;51.412;5.436;2023-12-20T09:05:31;101474.81;;;5.19;100.00
73981;BME280;62348;51.412;5.436;2023-12-20T09:07:56;101469.84;;;5.16;100.00
73981;BME280;62348;51.412;5.436;2023-12-20T09:10:22;101472.13;;;5.19;100.00
73981;BME280;62348;51.412;5.436;2023-12-20T09:12:51;101474.00;;;5.18;100.00
73981;BME280;62348;51.412;5.436;2023-12-20T09:15:17;101471.09;;;5.20;100.00
73981;BME280;62348;51.412;5.436;2023-12-20T09:17:42;101485.13;;;5.22;100.00
73981;BME280;62348;51.412;5.436;2023-12-20T09:20:09;101481.19;;;5.24;100.00
73981;BME280;62348;51.412;5.436;2023-12-20T09:22:35;101484.47;;;5.26;100.00
73981;BME280;62348;51.412;5.436;2023-12-20T09:25:00;101481.78;;;5.26;100.00
73981;BME280;62348;51.412;5.436;2023-12-20T09:27:27;101485.91;;;5.29;100.00
73981;BME280;62348;51.412;5.436;2023-12-20T09:29:52;101480.13;;;5.32;100.00
73981;BME280;62348;51.412;5.436;2023-12-20T09:32:18;101487.16;;;5.33;100.00
73981;BME280;62348;51.412;5.436;2023-12-20T09:34:45;101482.16;;;5.37;100.00
73981;BME280;62348;51.412;5.436;2023-12-20T09:37:11;101491.88;;;5.38;100.00
73981;BME280;62348;51.412;5.436;2023-12-20T09:39:36;101489.81;;;5.40;100.00
73981;BME280;62348;51.412;5.436;2023-12-20T09:42:06;101480.13;;;5.39;100.00
73981;BME280;62348;51.412;5.436;2023-12-20T09:44:33;101485.50;;;5.39;100.00
73981;BME280;62348;51.412;5.436;2023-12-20T09:47:02;101479.09;;;5.40;100.00
73981;BME280;62348;51.412;5.436;2023-12-20T09:49:28;101475.38;;;5.41;100.00
73981;BME280;62348;51.412;5.436;2023-12-20T09:51:54;101479.69;;;5.42;100.00
73981;BME280;62348;51.412;5.436;2023-12-20T09:54:21;101482.16;;;5.43;100.00
73981;BME280;62348;51.412;5.436;2023-12-20T09:56:46;101473.31;;;5.43;100.00
73981;BME280;62348;51.412;5.436;2023-12-20T09:59:12;101464.00;;;5.45;100.00
73981;BME280;62348;51.412;5.436;2023-12-20T10:01:41;101470.19;;;5.46;100.00
73981;BME280;62348;51.412;5.436;2023-12-20T10:04:08;101467.28;;;5.47;100.00
73981;BME280;62348;51.412;5.436;2023-12-20T10:06:40;101467.91;;;5.50;100.00
73981;BME280;62348;51.412;5.436;2023-12-20T10:09:06;101470.59;;;5.50;100.00
73981;BME280;62348;51.412;5.436;2023-12-20T10:11:31;101471.41;;;5.50;100.00
73981;BME280;62348;51.412;5.436;2023-12-20T10:14:00;101462.13;;;5.53;100.00
73981;BME280;62348;51.412;5.436;2023-12-20T10:16:29;101460.25;;;5.53;100.00
73981;BME280;62348;51.412;5.436;2023-12-20T10:18:55;101462.94;;;5.53;100.00
73981;BME280;62348;51.412;5.436;2023-12-20T10:21:22;101455.72;;;5.54;100.00
73981;BME280;62348;51.412;5.436;2023-12-20T10:23:48;101452.00;;;5.55;100.00
73981;BME280;62348;51.412;5.436;2023-12-20T10:26:23;101456.31;;;5.56;100.00
73981;BME280;62348;51.412;5.436;2023-12-20T10:28:55;101463.75;;;5.60;100.00
73981;BME280;62348;51.412;5.436;2023-12-20T10:31:32;101464.78;;;5.59;100.00
73981;BME280;62348;51.412;5.436;2023-12-20T10:33:58;101470.13;;;5.59;100.00
73981;BME280;62348;51.412;5.436;2023-12-20T10:36:26;101464.78;;;5.59;100.00
73981;BME280;62348;51.412;5.436;2023-12-20T10:38:55;101479.03;;;5.60;100.00
73981;BME280;62348;51.412;5.436;2023-12-20T10:41:32;101473.44;;;5.61;100.00
73981;BME280;62348;51.412;5.436;2023-12-20T10:44:00;101461.06;;;5.60;100.00
73981;BME280;62348;51.412;5.436;2023-12-20T10:46:29;101460.84;;;5.62;100.00
73981;BME280;62348;51.412;5.436;2023-12-20T10:48:56;101464.34;;;5.62;100.00
73981;BME280;62348;51.412;5.436;2023-12-20T10:51:23;101455.28;;;5.63;100.00
73981;BME280;62348;51.412;5.436;2023-12-20T10:53:50;101449.91;;;5.63;100.00
73981;BME280;62348;51.412;5.436;2023-12-20T10:56:19;101449.69;;;5.65;100.00
73981;BME280;62348;51.412;5.436;2023-12-20T10:58:45;101452.97;;;5.67;100.00
73981;BME280;62348;51.412;5.436;2023-12-20T11:01:13;101446.38;;;5.70;100.00
73981;BME280;62348;51.412;5.436;2023-12-20T11:03:46;101439.97;;;5.71;100.00
73981;BME280;62348;51.412;5.436;2023-12-20T11:06:35;101433.56;;;5.72;100.00
73981;BME280;62348;51.412;5.436;2023-12-20T11:12:13;101431.28;;;5.75;100.00
73981;BME280;62348;51.412;5.436;2023-12-20T11:17:10;101439.94;;;5.77;100.00
73981;BME280;62348;51.412;5.436;2023-12-20T11:20:04;101439.72;;;5.79;100.00
73981;BME280;62348;51.412;5.436;2023-12-20T11:22:31;101430.03;;;5.78;100.00
73981;BME280;62348;51.412;5.436;2023-12-20T11:25:10;101437.88;;;5.79;100.00
73981;BME280;62348;51.412;5.436;2023-12-20T11:27:40;101434.97;;;5.81;100.00
73981;BME280;62348;51.412;5.436;2023-12-20T11:30:07;101424.25;;;5.81;100.00
73981;BME280;62348;51.412;5.436;2023-12-20T11:32:35;101425.88;;;5.82;100.00
73981;BME280;62348;51.412;5.436;2023-12-20T11:35:17;101417.41;;;5.85;100.00
73981;BME280;62348;51.412;5.436;2023-12-20T11:37:43;101417.19;;;5.86;100.00
73981;BME280;62348;51.412;5.436;2023-12-20T11:40:12;101402.09;;;5.85;100.00
73981;BME280;62348;51.412;5.436;2023-12-20T11:42:40;101397.56;;;5.86;100.00
73981;BME280;62348;51.412;5.436;2023-12-20T11:45:17;101387.66;;;5.86;100.00
73981;BME280;62348;51.412;5.436;2023-12-20T11:47:46;101392.19;;;5.86;100.00
73981;BME280;62348;51.412;5.436;2023-12-20T11:50:12;101408.28;;;5.86;100.00
73981;BME280;62348;51.412;5.436;2023-12-20T11:52:37;101395.94;;;5.85;100.00
73981;BME280;62348;51.412;5.436;2023-12-20T11:55:03;101401.09;;;5.86;100.00
73981;BME280;62348;51.412;5.436;2023-12-20T11:57:29;101391.38;;;5.85;100.00
73981;BME280;62348;51.412;5.436;2023-12-20T11:59:55;101404.59;;;5.87;100.00
73981;BME280;62348;51.412;5.436;2023-12-20T12:02:21;101395.72;;;5.86;100.00
73981;BME280;62348;51.412;5.436;2023-12-20T12:04:48;101395.72;;;5.86;100.00
73981;BME280;62348;51.412;5.436;2023-12-20T12:07:13;101385.78;;;5.87;100.00
73981;BME280;62348;51.412;5.436;2023-12-20T12:09:39;101377.75;;;5.87;100.00
73981;BME280;62348;51.412;5.436;2023-12-20T12:12:05;101366.19;;;5.86;100.00
73981;BME280;62348;51.412;5.436;2023-12-20T12:14:30;101364.53;;;5.85;100.00
73981;BME280;62348;51.412;5.436;2023-12-20T12:16:56;101359.16;;;5.85;100.00
73981;BME280;62348;51.412;5.436;2023-12-20T12:19:26;101359.16;;;5.85;100.00
73981;BME280;62348;51.412;5.436;2023-12-20T12:22:06;101356.28;;;5.87;100.00
73981;BME280;62348;51.412;5.436;2023-12-20T12:24:34;101354.63;;;5.86;100.00
73981;BME280;62348;51.412;5.436;2023-12-20T12:26:59;101357.09;;;5.87;100.00
73981;BME280;62348;51.412;5.436;2023-12-20T12:29:25;101356.28;;;5.87;100.00
73981;BME280;62348;51.412;5.436;2023-12-20T12:31:51;101357.94;;;5.88;100.00
73981;BME280;62348;51.412;5.436;2023-12-20T12:34:17;101364.13;;;5.89;100.00
73981;BME280;62348;51.412;5.436;2023-12-20T12:36:43;101371.97;;;5.90;100.00
73981;BME280;62348;51.412;5.436;2023-12-20T12:39:11;101359.13;;;5.92;100.00
73981;BME280;62348;51.412;5.436;2023-12-20T12:41:37;101352.50;;;5.95;100.00
73981;BME280;62348;51.412;5.436;2023-12-20T12:44:02;101349.63;;;5.96;100.00
73981;BME280;62348;51.412;5.436;2023-12-20T12:46:28;101352.72;;;6.00;100.00
73981;BME280;62348;51.412;5.436;2023-12-20T12:48:53;101346.28;;;6.01;100.00
73981;BME280;62348;51.412;5.436;2023-12-20T12:51:18;101347.50;;;6.05;100.00